Allen, MD

4:36 PM EST on December 25, 2014 (GMT -0500)
Mathialoc's Nest | Change Station
CLOSE
Current Station
Personal Weather Station
Location: Eden, MD
Elevation: 49 ft
Nearby Weather Stations

Elev 49 ft 38.25 °N, 75.61 °W | Updated 9 seconds ago

Clear
Clear
50.9 °F
Feels Like 50.9 °F
N
0.4
Wind Variable Wind from NNW
Gusts 2.5 mph

Today
High -- | Low -- °F
--% Chance of Precip.
Yesterday
High -- | Low -- °F
Precip. -- in
7:17 AM 4:48 PM
Waxing Crescent, 19% visible
Pressure 30.05 in
Visibility 10.0 miles
Clouds Clear
Dew Point 33 °F
Humidity 50%
Rainfall 0.07 in
Snow Depth Not available.
UV 0 out of 12
Pollen .10 out of 12
Air Quality Not available.
Flu Activity Not available.
METAR KSBY 252054Z 30008KT 10SM CLR 13/M01 A3004 RMK AO2 SLP175 T01281006 53037

More Conditions Fewer Conditions

Pressure 30.05 in
Visibility 10.0 miles
Clouds Clear
Dew Point 33 °F
Humidity 50%
Rainfall 0.07 in
Snow Depth Not available.
UV 0 out of 12
Pollen .10 out of 12
Air Quality Not available.
Flu Activity Not available.
METAR KSBY 252054Z 30008KT 10SM CLR 13/M01 A3004 RMK AO2 SLP175 T01281006 53037

More Conditions Fewer Conditions

10-Day Weather Forecast

Almanac

Astronomy

Dec. 25, 2014 Rise Set
Actual Time
Civil Twilight
Nautical Twilight
Astronomical Twilight
Moon
Length of Visible Light
Length of Day
Tomorrow will be .
, % of the Moon is Illuminated

Today's Extremes

State Highs State Lows

Community

WunderPhotos

Upload Photos

1,780,402 photos uploaded!

WunderBlogs® & News

Nearby

Air Quality

  Air Quality AQ Index Pollutant
Not available.

Snow Depth

Station Depth Elevation

Earthquake Activity

City Distance Mag. Time & Date
Minimum magnitude displayed is 2.5.

Coastal Water Temperatures

Place Temperature

Nearby Weather Stations